WZZ126J EDLW-EPKT
Flight info
| Callsign | WZZ126J |
|---|---|
| Flight time | N/A |
| Altitude | 19000 |
| Route | NUDGO3Q/06 NUDGO Z858 ESADU/N0447F350 DCT WRB DCT NOMKA DCT LASIS DCT GODLO T714 MOFKE |
| Aircraft | A321/M-SDE3FGHIRWY/LB1 |
Departure
| Time | N/A |
|---|---|
| Airport | Dortmund Airport (EDLW) |
Arrival
| Time | 2026-04-30 18:09 |
|---|---|
| Airport | Katowice Wojciech Korfanty International Airport (EPKT) |
| Time | Latitude | Longitude | Altitude | Speed | Heading |
|---|---|---|---|---|---|
| 2026-04-30 17:39 | 50.96886 | 16.63560 | 35445 ft | 419 kts | 103° |
| 2026-04-30 17:42 | 50.85508 | 17.06091 | 35441 ft | 419 kts | 103° |
| 2026-04-30 17:43 | 50.79715 | 17.27249 | 35438 ft | 419 kts | 104° |
| 2026-04-30 17:44 | 50.72689 | 17.52499 | 35432 ft | 419 kts | 104° |
| 2026-04-30 17:46 | 50.66917 | 17.73533 | 34538 ft | 415 kts | 103° |
| 2026-04-30 17:47 | 50.62329 | 17.90097 | 32048 ft | 412 kts | 103° |
| 2026-04-30 17:48 | 50.58545 | 18.07305 | 27621 ft | 416 kts | 88° |
| 2026-04-30 17:48 | 50.58078 | 18.21083 | 24495 ft | 422 kts | 85° |
| 2026-04-30 17:49 | 50.57552 | 18.38228 | 23176 ft | 374 kts | 85° |
| 2026-04-30 17:50 | 50.57028 | 18.54372 | 20707 ft | 366 kts | 87° |
| 2026-04-30 17:51 | 50.56560 | 18.66310 | 19081 ft | 363 kts | 88° |
| 2026-04-30 17:52 | 50.56280 | 18.78086 | 17442 ft | 352 kts | 84° |
| 2026-04-30 17:53 | 50.56514 | 18.94374 | 16789 ft | 292 kts | 83° |
| 2026-04-30 17:54 | 50.56541 | 19.06934 | 15299 ft | 285 kts | 85° |
| 2026-04-30 17:55 | 50.56443 | 19.19192 | 12870 ft | 276 kts | 85° |
| 2026-04-30 17:56 | 50.56366 | 19.31114 | 10065 ft | 260 kts | 86° |
| 2026-04-30 17:57 | 50.56313 | 19.39046 | 8486 ft | 235 kts | 86° |
| 2026-04-30 17:58 | 50.56267 | 19.46679 | 6553 ft | 231 kts | 86° |
| 2026-04-30 17:59 | 50.56204 | 19.56610 | 5065 ft | 214 kts | 87° |
| 2026-04-30 18:00 | 50.53770 | 19.64318 | 5002 ft | 226 kts | 168° |
| 2026-04-30 18:00 | 50.49148 | 19.63598 | 5001 ft | 224 kts | 213° |
| 2026-04-30 18:01 | 50.47438 | 19.59797 | 5000 ft | 214 kts | 264° |
| 2026-04-30 18:02 | 50.47397 | 19.52878 | 5006 ft | 211 kts | 275° |
| 2026-04-30 18:02 | 50.47441 | 19.45949 | 5011 ft | 211 kts | 274° |
| 2026-04-30 18:03 | 50.47477 | 19.39105 | 4743 ft | 198 kts | 274° |
| 2026-04-30 18:04 | 50.47507 | 19.33049 | 3980 ft | 174 kts | 275° |
| 2026-04-30 18:05 | 50.47540 | 19.25864 | 3083 ft | 159 kts | 275° |
| 2026-04-30 18:06 | 50.47565 | 19.19281 | 2254 ft | 144 kts | 275° |
| 2026-04-30 18:07 | 50.47584 | 19.13027 | 1429 ft | 141 kts | 273° |
| 2026-04-30 18:08 | 50.47603 | 19.08478 | 997 ft | 116 kts | 269° |
| 2026-04-30 18:09 | 50.47461 | 19.06848 | 998 ft | 9 kts | 173° |
| 2026-04-30 18:10 | 50.47428 | 19.06957 | 999 ft | 0 kts | 92° |
| 2026-04-30 18:11 | 50.47427 | 19.07282 | 999 ft | 16 kts | 90° |
| 2026-04-30 18:11 | 50.47292 | 19.07443 | 1000 ft | 12 kts | 180° |
| 2026-04-30 18:12 | 50.47234 | 19.07661 | 1003 ft | 4 kts | 90° |
| 2026-04-30 18:13 | 50.47176 | 19.07695 | 998 ft | 7 kts | 179° |
| 2026-04-30 18:13 | 50.47150 | 19.07695 | 1003 ft | 0 kts | 180° |